Terminal Aerodrome Forecast
Issued by NWS Cleveland, OH

Home | Current Version | Previous Version | Text Only | Print | Product List | Glossary Off
Versions: 1 2 3 4 5 6 7 8 9 10 11 12 13 14 15 16 17 18 19 20

000
FTUS41 KCLE 231100
TAFYNG
TAF
KYNG 231125Z 2312/2412 21010KT 6SM -SHRA OVC035
     FM231500 15011KT P6SM OVC035
     FM240300 12015G25KT 5SM -SHRA SCT008 OVC018
     FM240800 18015G25KT P6SM VCSH BKN018 OVC025=

USA.gov is the U.S. government's official web portal to all federal, state and local government web resources and services.